This is the latest recevied weather packets stored in our database for station/object NN5DX-13. If no packets are shown the sender has not sent any weather packets the latest 1 day(s).
| Time | Temp. | Humidity | Pressure | Rain* | Wind** | Luminosity | Snow |
|---|---|---|---|---|---|---|---|
| 1778103917 | 26.67° C | 28% | 1012.1 hPa | 0 mm | - | - | - |
| 1778103017 | 27.22° C | 29% | 1012.1 hPa | 0 mm | - | - | - |
| 1778100917 | 26.67° C | 27% | 1012.8 hPa | 0 mm | - | - | - |
| 1778100017 | 27.22° C | 27% | 1013.1 hPa | 0 mm | - | - | - |
| 1778096716 | 25° C | 34% | 1013.3 hPa | 0 mm | - | - | - |
| 1778096417 | 24.44° C | 34% | 1013.3 hPa | 0 mm | - | - | - |
| 1778091316 | 22.78° C | 42% | 1013.7 hPa | 0 mm | - | - | - |
| 1778090716 | 22.78° C | 42% | 1013.7 hPa | 0 mm | - | - | - |
| 1778087417 | 21.67° C | 48% | 1014 hPa | 0 mm | - | - | - |
| 1778086817 | 22.78° C | 39% | 1013.9 hPa | 0 mm | - | - | - |
| 1778085616 | 24.44° C | 25% | 1013.6 hPa | 0 mm | - | - | - |
| 1778085017 | 24.44° C | 25% | 1013.6 hPa | 0 mm | - | - | - |
| 1778081416 | 23.33° C | 27% | 1013.4 hPa | 0 mm | - | - | - |
| 1778081116 | 23.33° C | 28% | 1013.4 hPa | 0 mm | - | - | - |
| 1778080816 | 22.78° C | 28% | 1013.3 hPa | 0 mm | - | - | - |
| 1778079017 | 21.11° C | 33% | 1013.1 hPa | 0 mm | - | - | - |
| 1778078416 | 21.11° C | 33% | 1012.9 hPa | 0 mm | - | - | - |
| 1778073916 | 18.89° C | 42% | 1012.3 hPa | 0 mm | - | - | - |
| 1778073016 | 18.89° C | 44% | 1012 hPa | 0 mm | - | - | - |
| 1778072716 | 19.44° C | 44% | 1012.2 hPa | 0 mm | - | - | - |
| 1778072416 | 19.44° C | 43% | 1012.1 hPa | 0 mm | - | - | - |
| 1778071816 | 19.44° C | 42% | 1012 hPa | 0 mm | - | - | - |
| 1778071516 | 19.44° C | 42% | 1012 hPa | 0 mm | - | - | - |
| 1778071216 | 19.44° C | 42% | 1011.9 hPa | 0 mm | - | - | - |
| 1778070916 | 19.44° C | 42% | 1012 hPa | 0 mm | - | - | - |
* Rain latest hour (hover to see other rain measurements)
** Current wind speed in m/s (hover to see current wind gust speed)